sensor_id;sensor_type;location;lat;lon;timestamp;pressure;altitude;pressure_sealevel;temperature
82778;BMP280;72510;45.128;20.734;2024-01-30T00:03:07;102772.81;;;-0.22
82778;BMP280;72510;45.128;20.734;2024-01-30T00:13:08;102772.44;;;-0.32
82778;BMP280;72510;45.128;20.734;2024-01-30T00:23:10;102797.50;;;-0.31
82778;BMP280;72510;45.128;20.734;2024-01-30T00:33:12;102791.53;;;-0.41
82778;BMP280;72510;45.128;20.734;2024-01-30T00:43:13;102786.13;;;-0.35
82778;BMP280;72510;45.128;20.734;2024-01-30T00:53:15;102795.09;;;-0.15
82778;BMP280;72510;45.128;20.734;2024-01-30T01:03:16;102797.91;;;-0.21
82778;BMP280;72510;45.128;20.734;2024-01-30T01:13:19;102802.16;;;-0.37
82778;BMP280;72510;45.128;20.734;2024-01-30T01:23:23;102797.13;;;-0.51
82778;BMP280;72510;45.128;20.734;2024-01-30T01:33:24;102806.97;;;-0.48
82778;BMP280;72510;45.128;20.734;2024-01-30T01:43:26;102808.97;;;-0.53
82778;BMP280;72510;45.128;20.734;2024-01-30T01:53:29;102797.47;;;-0.61
82778;BMP280;72510;45.128;20.734;2024-01-30T02:03:31;102790.09;;;-0.68
82778;BMP280;72510;45.128;20.734;2024-01-30T02:13:33;102796.69;;;-0.62
82778;BMP280;72510;45.128;20.734;2024-01-30T02:23:36;102792.38;;;-0.58
82778;BMP280;72510;45.128;20.734;2024-01-30T02:33:38;102794.19;;;-0.49
82778;BMP280;72510;45.128;20.734;2024-01-30T02:43:39;102789.72;;;-0.49
82778;BMP280;72510;45.128;20.734;2024-01-30T02:53:41;102797.00;;;-0.54
82778;BMP280;72510;45.128;20.734;2024-01-30T03:03:43;102794.41;;;-0.72
82778;BMP280;72510;45.128;20.734;2024-01-30T03:13:45;102801.53;;;-0.81
82778;BMP280;72510;45.128;20.734;2024-01-30T03:23:47;102792.03;;;-0.95
82778;BMP280;72510;45.128;20.734;2024-01-30T03:33:49;102796.53;;;-1.04
82778;BMP280;72510;45.128;20.734;2024-01-30T03:43:50;102776.06;;;-1.10
82778;BMP280;72510;45.128;20.734;2024-01-30T03:53:51;102772.66;;;-1.02
82778;BMP280;72510;45.128;20.734;2024-01-30T04:03:53;102783.59;;;-1.09
82778;BMP280;72510;45.128;20.734;2024-01-30T04:13:54;102783.63;;;-1.18
82778;BMP280;72510;45.128;20.734;2024-01-30T04:23:55;102785.16;;;-1.25
82778;BMP280;72510;45.128;20.734;2024-01-30T04:33:56;102796.22;;;-1.28
82778;BMP280;72510;45.128;20.734;2024-01-30T04:43:57;102799.91;;;-1.38
82778;BMP280;72510;45.128;20.734;2024-01-30T04:53:59;102802.72;;;-1.35
82778;BMP280;72510;45.128;20.734;2024-01-30T05:04:00;102800.53;;;-1.41
82778;BMP280;72510;45.128;20.734;2024-01-30T05:14:03;102794.38;;;-1.54
82778;BMP280;72510;45.128;20.734;2024-01-30T05:24:05;102802.66;;;-1.70
82778;BMP280;72510;45.128;20.734;2024-01-30T05:34:06;102802.97;;;-1.80
82778;BMP280;72510;45.128;20.734;2024-01-30T05:44:07;102820.63;;;-1.85
82778;BMP280;72510;45.128;20.734;2024-01-30T05:54:09;102822.91;;;-1.93
82778;BMP280;72510;45.128;20.734;2024-01-30T06:04:13;102827.97;;;-1.96
82778;BMP280;72510;45.128;20.734;2024-01-30T06:14:14;102836.72;;;-1.92
82778;BMP280;72510;45.128;20.734;2024-01-30T06:24:16;102835.34;;;-1.90
82778;BMP280;72510;45.128;20.734;2024-01-30T06:34:18;102841.53;;;-1.77
82778;BMP280;72510;45.128;20.734;2024-01-30T06:44:20;102853.56;;;-1.58
82778;BMP280;72510;45.128;20.734;2024-01-30T06:54:24;102858.38;;;-1.25
82778;BMP280;72510;45.128;20.734;2024-01-30T07:04:25;102859.25;;;-0.86
82778;BMP280;72510;45.128;20.734;2024-01-30T07:14:26;102863.88;;;-0.36
82778;BMP280;72510;45.128;20.734;2024-01-30T07:24:27;102871.13;;;0.06
82778;BMP280;72510;45.128;20.734;2024-01-30T07:34:29;102870.69;;;0.46
82778;BMP280;72510;45.128;20.734;2024-01-30T07:44:32;102859.94;;;0.81
82778;BMP280;72510;45.128;20.734;2024-01-30T07:54:39;102870.34;;;1.23
82778;BMP280;72510;45.128;20.734;2024-01-30T08:04:41;102858.75;;;1.48
82778;BMP280;72510;45.128;20.734;2024-01-30T08:14:43;102864.34;;;1.96
82778;BMP280;72510;45.128;20.734;2024-01-30T08:24:48;102874.78;;;2.33
82778;BMP280;72510;45.128;20.734;2024-01-30T08:34:49;102879.78;;;2.79
82778;BMP280;72510;45.128;20.734;2024-01-30T08:44:50;102882.28;;;3.19
82778;BMP280;72510;45.128;20.734;2024-01-30T08:54:53;102890.44;;;3.46
82778;BMP280;72510;45.128;20.734;2024-01-30T09:04:57;102900.00;;;3.70
82778;BMP280;72510;45.128;20.734;2024-01-30T09:14:58;102895.84;;;4.05
82778;BMP280;72510;45.128;20.734;2024-01-30T09:25:00;102890.84;;;4.38
82778;BMP280;72510;45.128;20.734;2024-01-30T09:35:03;102879.91;;;4.79
82778;BMP280;72510;45.128;20.734;2024-01-30T09:45:05;102884.44;;;5.05
82778;BMP280;72510;45.128;20.734;2024-01-30T09:55:07;102867.44;;;5.26
82778;BMP280;72510;45.128;20.734;2024-01-30T10:05:09;102865.47;;;5.49
82778;BMP280;72510;45.128;20.734;2024-01-30T10:15:11;102856.72;;;5.72
82778;BMP280;72510;45.128;20.734;2024-01-30T10:25:15;102839.25;;;5.94
82778;BMP280;72510;45.128;20.734;2024-01-30T10:35:17;102849.72;;;6.24
82778;BMP280;72510;45.128;20.734;2024-01-30T10:45:19;102829.84;;;6.38
82778;BMP280;72510;45.128;20.734;2024-01-30T10:55:21;102831.13;;;6.58
82778;BMP280;72510;45.128;20.734;2024-01-30T11:05:24;102823.78;;;6.92
82778;BMP280;72510;45.128;20.734;2024-01-30T11:15:28;102799.59;;;7.85
82778;BMP280;72510;45.128;20.734;2024-01-30T11:25:32;102807.19;;;8.62
82778;BMP280;72510;45.128;20.734;2024-01-30T11:35:40;102788.63;;;9.58
82778;BMP280;72510;45.128;20.734;2024-01-30T11:45:41;102778.34;;;10.05
82778;BMP280;72510;45.128;20.734;2024-01-30T11:55:51;102768.28;;;10.65
82778;BMP280;72510;45.128;20.734;2024-01-30T12:05:56;102749.66;;;10.95
82778;BMP280;72510;45.128;20.734;2024-01-30T12:16:02;102737.59;;;11.38
82778;BMP280;72510;45.128;20.734;2024-01-30T12:26:04;102747.44;;;12.52
82778;BMP280;72510;45.128;20.734;2024-01-30T12:36:08;102729.41;;;13.25
82778;BMP280;72510;45.128;20.734;2024-01-30T12:46:12;102732.19;;;13.96
82778;BMP280;72510;45.128;20.734;2024-01-30T12:56:13;102714.25;;;14.86
82778;BMP280;72510;45.128;20.734;2024-01-30T13:06:18;102714.94;;;15.25
82778;BMP280;72510;45.128;20.734;2024-01-30T13:16:19;102711.91;;;15.80
82778;BMP280;72510;45.128;20.734;2024-01-30T13:26:24;102718.63;;;16.38
82778;BMP280;72510;45.128;20.734;2024-01-30T13:36:25;102700.06;;;16.89
82778;BMP280;72510;45.128;20.734;2024-01-30T13:46:27;102701.09;;;16.83
82778;BMP280;72510;45.128;20.734;2024-01-30T13:56:28;102700.91;;;16.77
82778;BMP280;72510;45.128;20.734;2024-01-30T14:06:31;102698.25;;;17.14
82778;BMP280;72510;45.128;20.734;2024-01-30T14:16:32;102695.81;;;17.44
82778;BMP280;72510;45.128;20.734;2024-01-30T14:26:33;102686.88;;;16.91
82778;BMP280;72510;45.128;20.734;2024-01-30T14:36:34;102679.53;;;16.64
82778;BMP280;72510;45.128;20.734;2024-01-30T14:46:36;102673.56;;;16.79
82778;BMP280;72510;45.128;20.734;2024-01-30T14:56:38;102676.78;;;16.37
82778;BMP280;72510;45.128;20.734;2024-01-30T15:06:40;102678.53;;;15.24
82778;BMP280;72510;45.128;20.734;2024-01-30T15:16:46;102654.63;;;14.05
82778;BMP280;72510;45.128;20.734;2024-01-30T15:26:47;102658.56;;;11.44
82778;BMP280;72510;45.128;20.734;2024-01-30T15:36:49;102662.00;;;10.02
82778;BMP280;72510;45.128;20.734;2024-01-30T15:46:50;102664.81;;;8.68
82778;BMP280;72510;45.128;20.734;2024-01-30T15:56:51;102664.97;;;7.53
82778;BMP280;72510;45.128;20.734;2024-01-30T16:06:53;102663.69;;;6.83
82778;BMP280;72510;45.128;20.734;2024-01-30T16:16:58;102653.50;;;6.26
82778;BMP280;72510;45.128;20.734;2024-01-30T16:26:59;102653.50;;;5.74
82778;BMP280;72510;45.128;20.734;2024-01-30T16:37:01;102658.16;;;5.16
82778;BMP280;72510;45.128;20.734;2024-01-30T16:47:03;102644.31;;;4.93
82778;BMP280;72510;45.128;20.734;2024-01-30T16:57:04;102646.16;;;4.62
82778;BMP280;72510;45.128;20.734;2024-01-30T17:07:06;102641.84;;;4.00
82778;BMP280;72510;45.128;20.734;2024-01-30T17:17:07;102645.34;;;3.62
82778;BMP280;72510;45.128;20.734;2024-01-30T17:27:13;102639.72;;;3.44
82778;BMP280;72510;45.128;20.734;2024-01-30T17:37:15;102632.38;;;3.14
82778;BMP280;72510;45.128;20.734;2024-01-30T17:47:17;102627.47;;;3.13
82778;BMP280;72510;45.128;20.734;2024-01-30T17:57:18;102623.28;;;3.12
82778;BMP280;72510;45.128;20.734;2024-01-30T18:07:20;102608.59;;;2.91
82778;BMP280;72510;45.128;20.734;2024-01-30T18:17:23;102603.78;;;2.77
82778;BMP280;72510;45.128;20.734;2024-01-30T18:27:26;102602.63;;;2.59
82778;BMP280;72510;45.128;20.734;2024-01-30T18:37:27;102598.91;;;2.44
82778;BMP280;72510;45.128;20.734;2024-01-30T18:47:29;102597.72;;;2.10
82778;BMP280;72510;45.128;20.734;2024-01-30T18:57:31;102591.59;;;1.74
82778;BMP280;72510;45.128;20.734;2024-01-30T19:07:33;102592.97;;;1.55
82778;BMP280;72510;45.128;20.734;2024-01-30T19:17:34;102589.63;;;1.70
82778;BMP280;72510;45.128;20.734;2024-01-30T19:27:35;102578.41;;;1.58
82778;BMP280;72510;45.128;20.734;2024-01-30T19:37:37;102590.78;;;1.57
82778;BMP280;72510;45.128;20.734;2024-01-30T19:47:38;102593.97;;;1.50
82778;BMP280;72510;45.128;20.734;2024-01-30T19:57:40;102589.56;;;1.26
82778;BMP280;72510;45.128;20.734;2024-01-30T20:07:42;102575.72;;;1.13
82778;BMP280;72510;45.128;20.734;2024-01-30T20:17:47;102566.31;;;1.12
82778;BMP280;72510;45.128;20.734;2024-01-30T20:27:51;102568.28;;;1.16
82778;BMP280;72510;45.128;20.734;2024-01-30T20:37:54;102562.72;;;1.05
82778;BMP280;72510;45.128;20.734;2024-01-30T20:47:55;102567.03;;;0.72
82778;BMP280;72510;45.128;20.734;2024-01-30T20:57:57;102541.59;;;0.48
82778;BMP280;72510;45.128;20.734;2024-01-30T21:07:58;102542.44;;;0.52
82778;BMP280;72510;45.128;20.734;2024-01-30T21:18:02;102530.63;;;0.34
82778;BMP280;72510;45.128;20.734;2024-01-30T21:28:07;102531.19;;;0.15
82778;BMP280;72510;45.128;20.734;2024-01-30T21:38:11;102518.75;;;0.12
82778;BMP280;72510;45.128;20.734;2024-01-30T21:48:12;102512.75;;;0.11
82778;BMP280;72510;45.128;20.734;2024-01-30T21:58:15;102520.16;;;-0.03
82778;BMP280;72510;45.128;20.734;2024-01-30T22:08:17;102523.19;;;-0.13
82778;BMP280;72510;45.128;20.734;2024-01-30T22:18:18;102523.66;;;0.01
82778;BMP280;72510;45.128;20.734;2024-01-30T22:28:20;102509.47;;;0.02
82778;BMP280;72510;45.128;20.734;2024-01-30T22:38:21;102499.84;;;-0.18
82778;BMP280;72510;45.128;20.734;2024-01-30T22:48:25;102501.88;;;-0.24
82778;BMP280;72510;45.128;20.734;2024-01-30T22:58:29;102493.16;;;-0.28
82778;BMP280;72510;45.128;20.734;2024-01-30T23:08:30;102474.00;;;-0.41
82778;BMP280;72510;45.128;20.734;2024-01-30T23:18:35;102473.94;;;-0.32
82778;BMP280;72510;45.128;20.734;2024-01-30T23:28:37;102455.13;;;-0.34
82778;BMP280;72510;45.128;20.734;2024-01-30T23:38:38;102463.06;;;-0.43
82778;BMP280;72510;45.128;20.734;2024-01-30T23:48:40;102447.44;;;-0.64
82778;BMP280;72510;45.128;20.734;2024-01-30T23:58:42;102458.66;;;-0.64
